createdAt,value
2022-12-02T00:01:56.150Z,5
2022-12-02T00:03:56.460Z,5
2022-12-02T00:05:56.353Z,6
2022-12-02T00:07:58.071Z,6
2022-12-02T00:09:56.516Z,7
2022-12-02T00:11:56.593Z,6
2022-12-02T00:13:56.673Z,8
2022-12-02T00:15:56.809Z,8
2022-12-02T00:17:56.889Z,7
2022-12-02T00:19:56.943Z,8
2022-12-02T00:21:57.068Z,7
2022-12-02T00:23:57.101Z,6
2022-12-02T00:25:57.373Z,6
2022-12-02T00:29:57.424Z,7
2022-12-02T00:31:57.576Z,7
2022-12-02T00:33:57.528Z,6
2022-12-02T00:35:57.655Z,6
2022-12-02T00:37:57.726Z,5
2022-12-02T00:39:57.847Z,6
2022-12-02T00:41:57.902Z,5
2022-12-02T00:43:58.048Z,4
2022-12-02T00:45:58.192Z,3
2022-12-02T00:47:58.194Z,3
2022-12-02T00:49:58.271Z,3
2022-12-02T00:51:58.398Z,3
2022-12-02T00:55:58.491Z,3
2022-12-02T00:57:58.612Z,3
2022-12-02T00:59:58.669Z,3
2022-12-02T01:01:58.872Z,2
2022-12-02T01:03:58.964Z,2
2022-12-02T01:05:58.991Z,2
2022-12-02T01:08:29.089Z,3
2022-12-02T01:10:29.431Z,4
2022-12-02T01:12:29.327Z,3
2022-12-02T01:14:29.446Z,3
2022-12-02T01:16:29.572Z,4
2022-12-02T01:20:29.798Z,3
2022-12-02T01:22:29.918Z,3
2022-12-02T01:24:30.090Z,3
2022-12-02T01:26:30.137Z,3
2022-12-02T01:28:30.260Z,4
2022-12-02T01:30:30.385Z,3
2022-12-02T01:32:30.519Z,3
2022-12-02T01:34:30.627Z,3
2022-12-02T01:36:30.728Z,3
2022-12-02T01:38:30.860Z,3
2022-12-02T01:42:31.094Z,3
2022-12-02T01:44:31.217Z,5
2022-12-02T01:46:31.342Z,5
2022-12-02T01:48:31.416Z,4
2022-12-02T01:50:31.528Z,4
2022-12-02T01:52:31.642Z,4
2022-12-02T01:54:31.801Z,4
2022-12-02T01:56:31.906Z,4
2022-12-02T01:58:32.012Z,5
2022-12-02T02:00:32.111Z,5
2022-12-02T02:02:32.257Z,5
2022-12-02T02:04:32.426Z,5
2022-12-02T02:06:32.445Z,3
2022-12-02T02:08:32.568Z,4
2022-12-02T02:10:32.736Z,4
2022-12-02T02:12:32.761Z,5
2022-12-02T02:14:32.882Z,4
2022-12-02T02:16:33.054Z,3
2022-12-02T02:18:33.133Z,2
2022-12-02T02:20:33.245Z,3
2022-12-02T02:22:33.346Z,3
2022-12-02T02:24:33.469Z,3
2022-12-02T02:26:33.594Z,2
2022-12-02T02:28:33.673Z,2
2022-12-02T02:32:33.908Z,2
2022-12-02T02:34:34.013Z,2
2022-12-02T02:36:34.142Z,2
2022-12-02T02:38:34.235Z,2
2022-12-02T02:40:34.371Z,2
2022-12-02T02:42:34.473Z,1
2022-12-02T02:44:34.566Z,2
2022-12-02T02:46:34.901Z,2
2022-12-02T02:48:34.810Z,2
2022-12-02T02:50:34.925Z,2
2022-12-02T02:52:35.040Z,2
2022-12-02T02:54:35.149Z,2
2022-12-02T02:56:35.341Z,2
2022-12-02T02:58:35.407Z,3
2022-12-02T03:00:35.504Z,3
2022-12-02T03:02:35.693Z,3
2022-12-02T03:04:35.705Z,3
2022-12-02T03:06:35.900Z,3
2022-12-02T03:08:35.924Z,3
2022-12-02T03:10:36.051Z,3
2022-12-02T03:12:36.161Z,2
2022-12-02T03:16:36.432Z,2
2022-12-02T03:18:36.452Z,2
2022-12-02T03:20:36.563Z,2
2022-12-02T03:22:36.642Z,2
2022-12-02T03:24:36.751Z,3
2022-12-02T03:26:36.887Z,3
2022-12-02T03:28:36.966Z,4
2022-12-02T03:30:37.133Z,4
2022-12-02T03:32:42.210Z,3
2022-12-02T03:34:37.338Z,2
2022-12-02T03:38:37.632Z,2
2022-12-02T03:40:37.623Z,2
2022-12-02T03:42:37.761Z,2
2022-12-02T03:44:37.858Z,2
2022-12-02T03:46:38.016Z,2
2022-12-02T03:48:38.079Z,2
2022-12-02T03:50:38.166Z,2
2022-12-02T03:52:38.266Z,2
2022-12-02T03:54:38.433Z,2
2022-12-02T03:58:38.586Z,2
2022-12-02T04:00:38.689Z,2
2022-12-02T04:02:38.821Z,2
2022-12-02T04:04:38.881Z,2
2022-12-02T04:06:38.984Z,2
2022-12-02T04:08:39.067Z,2
2022-12-02T04:10:39.191Z,2
2022-12-02T04:12:39.304Z,2
2022-12-02T04:14:39.400Z,2
2022-12-02T04:16:39.560Z,2
2022-12-02T04:18:39.629Z,3
2022-12-02T04:20:39.737Z,3
2022-12-02T04:22:39.829Z,3
2022-12-02T04:24:39.968Z,3
2022-12-02T04:26:43.646Z,4
2022-12-02T04:28:40.186Z,4
2022-12-02T04:32:40.408Z,3
2022-12-02T04:34:40.518Z,4
2022-12-02T04:36:40.624Z,4
2022-12-02T04:38:40.717Z,4
2022-12-02T04:40:40.833Z,4
2022-12-02T04:42:40.916Z,5
2022-12-02T04:44:41.034Z,4
2022-12-02T04:46:41.195Z,3
2022-12-02T04:48:41.240Z,4
2022-12-02T04:50:41.358Z,3
2022-12-02T04:52:41.441Z,3
2022-12-02T04:54:41.583Z,3
2022-12-02T04:58:41.766Z,2
2022-12-02T05:00:41.978Z,2
2022-12-02T05:02:42.016Z,3
2022-12-02T05:04:42.140Z,4
2022-12-02T05:06:42.197Z,4
2022-12-02T05:08:42.475Z,4
2022-12-02T05:10:42.436Z,4
2022-12-02T05:12:42.518Z,4
2022-12-02T05:14:42.662Z,5
2022-12-02T05:16:42.770Z,5
2022-12-02T05:18:42.870Z,5
2022-12-02T05:20:42.975Z,4
2022-12-02T05:22:43.092Z,4
2022-12-02T05:24:43.205Z,3
2022-12-02T05:26:43.290Z,2
2022-12-02T05:28:43.419Z,3
2022-12-02T05:30:43.525Z,2
2022-12-02T05:32:43.628Z,3
2022-12-02T05:34:43.813Z,3
2022-12-02T05:36:43.855Z,3
2022-12-02T05:38:43.930Z,3
2022-12-02T05:40:44.029Z,3
2022-12-02T05:42:44.144Z,4
2022-12-02T05:44:44.262Z,3
2022-12-02T05:46:44.418Z,4
2022-12-02T05:48:44.514Z,4
2022-12-02T05:50:44.538Z,5
2022-12-02T05:52:44.634Z,6
2022-12-02T05:54:44.743Z,6
2022-12-02T05:56:44.866Z,7
2022-12-02T05:58:45.005Z,7
2022-12-02T06:00:45.085Z,7
2022-12-02T06:02:45.426Z,6
2022-12-02T06:04:45.275Z,6
2022-12-02T06:06:45.375Z,6
2022-12-02T06:08:45.494Z,7
2022-12-02T06:10:45.632Z,8
2022-12-02T06:12:45.691Z,7
2022-12-02T06:14:45.803Z,6
2022-12-02T06:16:46.021Z,7
2022-12-02T06:18:46.038Z,5
2022-12-02T06:20:46.119Z,6
2022-12-02T06:22:46.203Z,4
2022-12-02T06:24:46.296Z,7
2022-12-02T06:26:46.413Z,5
2022-12-02T06:28:46.502Z,6
2022-12-02T06:30:46.609Z,8
2022-12-02T06:32:46.741Z,10
2022-12-02T06:34:46.815Z,29
2022-12-02T06:36:46.916Z,40
2022-12-02T06:38:47.028Z,53
2022-12-02T06:40:47.154Z,46
2022-12-02T06:42:47.220Z,34
2022-12-02T06:44:47.361Z,19
2022-12-02T06:46:47.421Z,18
2022-12-02T06:48:47.536Z,13
2022-12-02T06:50:47.647Z,15
2022-12-02T06:52:47.738Z,17
2022-12-02T06:54:47.891Z,18
2022-12-02T06:56:47.956Z,18
2022-12-02T06:58:48.034Z,14
2022-12-02T07:00:48.371Z,16
2022-12-02T07:02:48.340Z,10
2022-12-02T07:04:48.523Z,11
2022-12-02T07:06:48.449Z,9
2022-12-02T07:08:48.656Z,9
2022-12-02T07:10:48.784Z,9
2022-12-02T07:12:48.860Z,10
2022-12-02T07:14:49.272Z,9
2022-12-02T07:16:49.174Z,9
2022-12-02T07:18:49.154Z,9
2022-12-02T07:20:49.272Z,8
2022-12-02T07:22:49.361Z,7
2022-12-02T07:24:49.643Z,8
2022-12-02T07:26:49.568Z,8
2022-12-02T07:28:49.633Z,10
2022-12-02T07:30:49.809Z,10
2022-12-02T07:32:49.852Z,11
2022-12-02T07:36:50.044Z,10
2022-12-02T07:39:06.809Z,9
2022-12-02T07:40:50.212Z,10
2022-12-02T07:42:50.318Z,11
2022-12-02T07:44:50.682Z,9
2022-12-02T07:46:50.522Z,8
2022-12-02T07:48:54.336Z,8
2022-12-02T07:50:50.702Z,10
2022-12-02T07:52:50.779Z,13
2022-12-02T07:54:51.437Z,10
2022-12-02T07:56:51.011Z,8
2022-12-02T07:59:11.913Z,7
2022-12-02T08:00:51.457Z,7
2022-12-02T08:02:51.261Z,7
2022-12-02T08:04:51.733Z,8
2022-12-02T08:06:51.482Z,7
2022-12-02T08:08:51.555Z,9
2022-12-02T08:10:51.670Z,6
2022-12-02T08:12:51.748Z,8
2022-12-02T08:14:52.019Z,7
2022-12-02T08:16:51.990Z,7
2022-12-02T08:18:52.049Z,8
2022-12-02T08:20:52.227Z,8
2022-12-02T08:22:52.278Z,9
2022-12-02T08:26:52.453Z,9
2022-12-02T08:28:54.345Z,16
2022-12-02T08:30:52.674Z,29
2022-12-02T08:32:52.721Z,26
2022-12-02T08:34:53.089Z,28
2022-12-02T08:36:52.925Z,31
2022-12-02T08:38:53.037Z,31
2022-12-02T08:40:53.172Z,24
2022-12-02T08:42:53.225Z,11
2022-12-02T08:44:53.616Z,15
2022-12-02T08:46:54.685Z,12
2022-12-02T08:48:53.507Z,12
2022-12-02T08:50:53.627Z,12
2022-12-02T08:52:58.148Z,12
2022-12-02T08:54:53.966Z,9
2022-12-02T08:56:53.885Z,11
2022-12-02T08:58:53.988Z,14
2022-12-02T09:00:54.085Z,12
2022-12-02T09:02:54.221Z,14
2022-12-02T09:04:54.431Z,14
2022-12-02T09:06:54.372Z,14
2022-12-02T09:08:54.511Z,14
2022-12-02T09:10:54.661Z,13
2022-12-02T09:12:54.637Z,12
2022-12-02T09:14:54.732Z,10
2022-12-02T09:16:54.813Z,9
2022-12-02T09:18:54.915Z,9
2022-12-02T09:22:55.136Z,10
2022-12-02T09:24:55.229Z,9
2022-12-02T09:26:55.322Z,9
2022-12-02T09:28:55.394Z,9
2022-12-02T09:30:55.556Z,8
2022-12-02T09:40:56.131Z,8
2022-12-02T09:42:56.081Z,8
2022-12-02T09:44:56.178Z,8
2022-12-02T09:46:56.291Z,8
2022-12-02T09:48:56.349Z,8
2022-12-02T09:50:56.522Z,8
2022-12-02T09:52:56.517Z,8
2022-12-02T09:54:56.625Z,7
2022-12-02T09:56:56.695Z,7
2022-12-02T10:00:56.886Z,7
2022-12-02T10:04:57.151Z,8
2022-12-02T10:06:57.160Z,9
2022-12-02T10:08:57.234Z,9
2022-12-02T10:10:57.329Z,9
2022-12-02T10:12:57.423Z,9
2022-12-02T10:14:57.517Z,9
2022-12-02T10:16:57.615Z,8
2022-12-02T10:18:57.710Z,8
2022-12-02T10:20:57.809Z,8
2022-12-02T10:22:57.871Z,8
2022-12-02T10:24:58.000Z,8
2022-12-02T10:26:58.236Z,8
2022-12-02T10:28:58.163Z,9
2022-12-02T10:30:58.306Z,11
2022-12-02T10:32:58.318Z,13
2022-12-02T10:34:58.416Z,13
2022-12-02T10:36:58.510Z,13
2022-12-02T10:38:58.551Z,13
2022-12-02T10:40:58.661Z,15
2022-12-02T10:42:58.727Z,16
2022-12-02T10:44:58.869Z,16
2022-12-02T10:46:58.934Z,16
2022-12-02T10:48:58.978Z,19
2022-12-02T10:50:59.049Z,19
2022-12-02T10:52:59.117Z,17
2022-12-02T10:54:59.486Z,13
2022-12-02T10:57:29.304Z,12
2022-12-02T10:59:29.446Z,9
2022-12-02T11:01:29.649Z,11
2022-12-02T11:03:29.669Z,17
2022-12-02T11:05:29.805Z,20
2022-12-02T11:07:29.935Z,19
2022-12-02T11:09:40.001Z,15
2022-12-02T11:11:30.125Z,13
2022-12-02T11:13:30.223Z,12
2022-12-02T11:15:30.321Z,11
2022-12-02T11:17:30.442Z,11
2022-12-02T11:19:30.513Z,12
2022-12-02T11:21:30.616Z,12
2022-12-02T11:23:30.759Z,16
2022-12-02T11:25:30.844Z,15
2022-12-02T11:27:30.925Z,17
2022-12-02T11:29:31.074Z,14
2022-12-02T11:31:31.239Z,12
2022-12-02T11:33:31.302Z,12
2022-12-02T11:37:31.474Z,12
2022-12-02T11:39:31.580Z,17
2022-12-02T11:41:31.707Z,27
2022-12-02T11:43:31.772Z,11
2022-12-02T11:45:31.932Z,6
2022-12-02T11:47:31.968Z,5
2022-12-02T11:49:32.063Z,5
2022-12-02T11:51:32.145Z,7
2022-12-02T11:55:32.357Z,7
2022-12-02T11:57:32.471Z,7
2022-12-02T11:59:32.595Z,7
2022-12-02T12:01:32.722Z,8
2022-12-02T12:03:32.979Z,9
2022-12-02T12:05:32.983Z,9
2022-12-02T12:07:33.280Z,8
2022-12-02T12:09:33.120Z,10
2022-12-02T12:11:33.202Z,13
2022-12-02T12:13:37.100Z,12
2022-12-02T12:15:33.424Z,7
2022-12-02T12:17:33.507Z,6
2022-12-02T12:19:33.608Z,9
2022-12-02T12:21:33.781Z,8
2022-12-02T12:23:33.793Z,7
2022-12-02T12:25:33.938Z,12
2022-12-02T12:27:34.060Z,12
2022-12-02T12:29:34.183Z,12
2022-12-02T12:31:38.391Z,15
2022-12-02T12:33:34.328Z,13
2022-12-02T12:35:34.428Z,10
2022-12-02T12:37:34.530Z,11
2022-12-02T12:39:34.626Z,10
2022-12-02T12:41:59.105Z,7
2022-12-02T12:43:35.001Z,11
2022-12-02T12:45:34.889Z,7
2022-12-02T12:47:34.991Z,8
2022-12-02T12:49:35.263Z,10
2022-12-02T12:53:35.282Z,7
2022-12-02T12:55:35.364Z,9
2022-12-02T12:57:35.479Z,8
2022-12-02T12:59:35.560Z,8
2022-12-02T13:01:35.709Z,8
2022-12-02T13:03:35.776Z,10
2022-12-02T13:05:35.858Z,11
2022-12-02T13:07:36.071Z,12
2022-12-02T13:09:36.102Z,13
2022-12-02T13:11:36.190Z,14
2022-12-02T13:13:36.343Z,20
2022-12-02T13:15:36.374Z,19
2022-12-02T13:17:36.467Z,19
2022-12-02T13:19:36.564Z,17
2022-12-02T13:21:36.695Z,13
2022-12-02T13:23:36.777Z,17
2022-12-02T13:25:36.931Z,19
2022-12-02T13:27:37.046Z,21
2022-12-02T13:29:37.085Z,19
2022-12-02T13:31:37.268Z,93
2022-12-02T13:33:37.277Z,55
2022-12-02T13:35:37.372Z,43
2022-12-02T13:37:37.451Z,28
2022-12-02T13:39:37.568Z,18
2022-12-02T13:41:37.657Z,19
2022-12-02T13:43:37.769Z,20
2022-12-02T13:45:37.868Z,23
2022-12-02T13:47:37.972Z,28
2022-12-02T13:49:38.273Z,31
2022-12-02T13:51:38.168Z,27
2022-12-02T13:53:38.287Z,26
2022-12-02T13:55:38.359Z,25
2022-12-02T13:57:38.461Z,22
2022-12-02T13:59:38.884Z,36
2022-12-02T14:01:38.692Z,42
2022-12-02T14:03:38.776Z,35
2022-12-02T14:05:38.847Z,31
2022-12-02T14:07:39.185Z,29
2022-12-02T14:09:39.074Z,30
2022-12-02T14:11:39.120Z,30
2022-12-02T14:13:39.244Z,27
2022-12-02T14:15:39.405Z,41
2022-12-02T14:17:39.432Z,38
2022-12-02T14:19:39.522Z,15
2022-12-02T14:21:39.619Z,32
2022-12-02T14:23:39.756Z,27
2022-12-02T14:25:39.852Z,20
2022-12-02T14:27:40.177Z,19
2022-12-02T14:29:40.030Z,16
2022-12-02T14:31:40.233Z,16
2022-12-02T14:34:09.531Z,18
2022-12-02T14:35:40.408Z,20
2022-12-02T14:37:40.378Z,19
2022-12-02T14:39:40.483Z,23
2022-12-02T14:41:40.591Z,26
2022-12-02T14:43:40.650Z,32
2022-12-02T14:45:40.771Z,32
2022-12-02T14:47:40.867Z,29
2022-12-02T14:49:41.983Z,26
2022-12-02T14:51:41.015Z,24
2022-12-02T14:53:45.343Z,23
2022-12-02T14:55:41.251Z,23
2022-12-02T14:57:41.297Z,26
2022-12-02T14:59:41.403Z,29
2022-12-02T15:01:41.647Z,28
2022-12-02T15:03:41.586Z,34
2022-12-02T15:05:41.706Z,29
2022-12-02T15:07:41.869Z,34
2022-12-02T15:09:41.870Z,39
2022-12-02T15:11:41.961Z,41
2022-12-02T15:13:42.081Z,41
2022-12-02T15:15:44.312Z,26
2022-12-02T15:17:42.262Z,19
2022-12-02T15:19:42.331Z,22
2022-12-02T15:21:42.441Z,24
2022-12-02T15:23:42.542Z,49
2022-12-02T15:25:42.607Z,64
2022-12-02T15:27:42.725Z,42
2022-12-02T15:29:42.864Z,39
2022-12-02T15:31:42.910Z,20
2022-12-02T15:33:42.961Z,25
2022-12-02T15:35:43.130Z,26
2022-12-02T15:37:43.176Z,22
2022-12-02T15:39:43.241Z,31
2022-12-02T15:41:43.331Z,34
2022-12-02T15:43:46.176Z,26
2022-12-02T15:45:43.481Z,27
2022-12-02T15:47:43.575Z,25
2022-12-02T15:49:43.698Z,32
2022-12-02T15:51:43.791Z,23
2022-12-02T15:53:43.888Z,23
2022-12-02T15:55:43.953Z,21
2022-12-02T15:57:44.069Z,17
2022-12-02T15:59:44.140Z,19
2022-12-02T16:01:44.433Z,16
2022-12-02T16:03:44.323Z,18
2022-12-02T16:05:44.404Z,18
2022-12-02T16:07:44.595Z,16
2022-12-02T16:09:44.668Z,17
2022-12-02T16:11:44.729Z,16
2022-12-02T16:13:44.786Z,17
2022-12-02T16:15:44.847Z,17
2022-12-02T16:17:44.947Z,25
2022-12-02T16:19:45.038Z,22
2022-12-02T16:21:45.108Z,20
2022-12-02T16:24:15.258Z,19
2022-12-02T16:26:15.394Z,21
2022-12-02T16:28:15.506Z,35
2022-12-02T16:30:15.632Z,31
2022-12-02T16:32:20.287Z,20
2022-12-02T16:34:15.862Z,24
2022-12-02T16:36:16.003Z,23
2022-12-02T16:38:16.173Z,17
2022-12-02T16:40:16.187Z,14
2022-12-02T16:42:16.314Z,14
2022-12-02T16:44:16.420Z,24
2022-12-02T16:46:16.642Z,27
2022-12-02T16:48:16.710Z,28
2022-12-02T16:50:16.754Z,17
2022-12-02T16:52:16.880Z,15
2022-12-02T16:54:17.006Z,13
2022-12-02T16:56:17.064Z,13
2022-12-02T16:58:17.185Z,15
2022-12-02T17:00:17.274Z,25
2022-12-02T17:02:17.447Z,19
2022-12-02T17:04:17.536Z,18
2022-12-02T17:06:17.635Z,16
2022-12-02T17:08:17.852Z,17
2022-12-02T17:10:17.855Z,18
2022-12-02T17:12:17.949Z,19
2022-12-02T17:14:18.097Z,17
2022-12-02T17:16:18.256Z,15
2022-12-02T17:18:18.313Z,14
2022-12-02T17:20:18.434Z,16
2022-12-02T17:22:18.568Z,14
2022-12-02T17:24:18.641Z,17
2022-12-02T17:26:18.730Z,21
2022-12-02T17:28:18.823Z,25
2022-12-02T17:30:18.980Z,25
2022-12-02T17:32:19.157Z,18
2022-12-02T17:34:19.191Z,17
2022-12-02T17:36:19.291Z,15
2022-12-02T17:38:19.450Z,19
2022-12-02T17:40:19.506Z,19
2022-12-02T17:42:19.728Z,21
2022-12-02T17:44:19.736Z,22
2022-12-02T17:46:20.006Z,20
2022-12-02T17:50:20.058Z,19
2022-12-02T17:52:21.086Z,19
2022-12-02T17:54:20.269Z,19
2022-12-02T17:56:20.398Z,23
2022-12-02T17:58:20.568Z,19
2022-12-02T18:00:20.604Z,24
2022-12-02T18:02:20.810Z,18
2022-12-02T18:04:20.854Z,22
2022-12-02T18:06:20.959Z,16
2022-12-02T18:08:21.066Z,15
2022-12-02T18:10:21.188Z,17
2022-12-02T18:12:21.288Z,16
2022-12-02T18:14:21.404Z,20
2022-12-02T18:16:21.583Z,20
2022-12-02T18:18:21.634Z,21
2022-12-02T18:20:21.700Z,22
2022-12-02T18:22:21.814Z,23
2022-12-02T18:24:21.927Z,20
2022-12-02T18:26:22.046Z,19
2022-12-02T18:28:22.158Z,25
2022-12-02T18:30:22.289Z,31
2022-12-02T18:32:22.363Z,30
2022-12-02T18:34:22.476Z,24
2022-12-02T18:36:22.582Z,25
2022-12-02T18:38:22.696Z,30
2022-12-02T18:40:22.810Z,28
2022-12-02T18:42:22.907Z,34
2022-12-02T18:44:23.026Z,31
2022-12-02T18:46:23.200Z,18
2022-12-02T18:48:23.217Z,16
2022-12-02T18:50:23.312Z,19
2022-12-02T18:52:23.433Z,21
2022-12-02T18:54:23.549Z,23
2022-12-02T18:56:24.361Z,25
2022-12-02T18:58:23.758Z,27
2022-12-02T19:00:23.840Z,26
2022-12-02T19:02:24.090Z,20
2022-12-02T19:04:24.062Z,21
2022-12-02T19:06:24.201Z,26
2022-12-02T19:08:24.278Z,21
2022-12-02T19:10:24.416Z,20
2022-12-02T19:12:24.525Z,25
2022-12-02T19:14:24.618Z,21
2022-12-02T19:16:24.773Z,19
2022-12-02T19:18:24.824Z,18
2022-12-02T19:20:24.924Z,30
2022-12-02T19:22:25.034Z,33
2022-12-02T19:24:25.123Z,30
2022-12-02T19:26:25.243Z,26
2022-12-02T19:28:25.412Z,21
2022-12-02T19:30:25.453Z,14
2022-12-02T19:32:25.552Z,17
2022-12-02T19:34:25.685Z,19
2022-12-02T19:36:25.771Z,17
2022-12-02T19:38:25.854Z,17
2022-12-02T19:40:30.995Z,17
2022-12-02T19:42:26.265Z,19
2022-12-02T19:44:26.165Z,16
2022-12-02T19:46:26.361Z,18
2022-12-02T19:48:26.369Z,17
2022-12-02T19:50:26.453Z,14
2022-12-02T19:52:26.571Z,11
2022-12-02T19:54:26.684Z,15
2022-12-02T19:56:26.796Z,12
2022-12-02T19:58:26.895Z,21
2022-12-02T20:00:27.025Z,15
2022-12-02T20:02:27.262Z,12
2022-12-02T20:04:40.657Z,14
2022-12-02T20:06:27.261Z,13
2022-12-02T20:08:27.369Z,13
2022-12-02T20:10:27.491Z,13
2022-12-02T20:12:27.574Z,15
2022-12-02T20:14:27.691Z,13
2022-12-02T20:16:27.822Z,13
2022-12-02T20:18:27.866Z,12
2022-12-02T20:20:28.046Z,15
2022-12-02T20:22:28.090Z,15
2022-12-02T20:24:28.189Z,17
2022-12-02T20:26:28.296Z,16
2022-12-02T20:28:28.387Z,17
2022-12-02T20:30:28.512Z,14
2022-12-02T20:32:28.592Z,14
2022-12-02T20:34:34.259Z,14
2022-12-02T20:36:28.788Z,15
2022-12-02T20:38:28.881Z,20
2022-12-02T20:40:29.079Z,21
2022-12-02T20:42:29.114Z,21
2022-12-02T20:44:29.191Z,21
2022-12-02T20:46:29.365Z,20
2022-12-02T20:48:29.384Z,20
2022-12-02T20:50:29.502Z,11
2022-12-02T20:52:29.603Z,14
2022-12-02T20:54:29.708Z,14
2022-12-02T20:56:29.801Z,15
2022-12-02T20:58:29.906Z,16
2022-12-02T21:00:30.035Z,17
2022-12-02T21:02:30.224Z,18
2022-12-02T21:04:30.181Z,15
2022-12-02T21:06:30.285Z,13
2022-12-02T21:08:30.365Z,28
2022-12-02T21:10:30.496Z,19
2022-12-02T21:12:30.582Z,18
2022-12-02T21:14:30.688Z,19
2022-12-02T21:16:30.862Z,15
2022-12-02T21:18:34.992Z,15
2022-12-02T21:20:30.973Z,18
2022-12-02T21:22:31.146Z,15
2022-12-02T21:24:31.199Z,24
2022-12-02T21:26:31.283Z,23
2022-12-02T21:28:31.369Z,35
2022-12-02T21:32:31.581Z,41
2022-12-02T21:34:31.675Z,24
2022-12-02T21:36:31.767Z,24
2022-12-02T21:38:31.850Z,19
2022-12-02T21:40:31.939Z,25
2022-12-02T21:42:32.134Z,23
2022-12-02T21:44:32.120Z,18
2022-12-02T21:46:32.289Z,17
2022-12-02T21:48:32.346Z,17
2022-12-02T21:50:32.430Z,17
2022-12-02T21:52:32.563Z,19
2022-12-02T21:54:32.629Z,16
2022-12-02T21:56:36.711Z,20
2022-12-02T21:58:32.840Z,16
2022-12-02T22:00:33.033Z,15
2022-12-02T22:02:33.071Z,13
2022-12-02T22:04:33.096Z,14
2022-12-02T22:06:33.205Z,15
2022-12-02T22:08:33.290Z,18
2022-12-02T22:10:33.377Z,13
2022-12-02T22:12:33.488Z,15
2022-12-02T22:14:33.561Z,14
2022-12-02T22:16:33.751Z,19
2022-12-02T22:18:33.748Z,19
2022-12-02T22:20:33.836Z,18
2022-12-02T22:22:33.912Z,17
2022-12-02T22:24:33.993Z,16
2022-12-02T22:26:34.107Z,18
2022-12-02T22:28:34.205Z,20
2022-12-02T22:30:34.316Z,21
2022-12-02T22:32:35.292Z,18
2022-12-02T22:34:34.505Z,16
2022-12-02T22:36:34.584Z,15
2022-12-02T22:38:34.681Z,15
2022-12-02T22:40:34.763Z,15
2022-12-02T22:42:34.863Z,16
2022-12-02T22:44:34.943Z,14
2022-12-02T22:46:35.032Z,15
2022-12-02T22:48:35.127Z,16
2022-12-02T22:50:35.205Z,17
2022-12-02T22:52:35.302Z,17
2022-12-02T22:54:35.413Z,20
2022-12-02T22:56:35.548Z,19
2022-12-02T22:58:35.580Z,18
2022-12-02T23:00:35.673Z,17
2022-12-02T23:02:35.833Z,18
2022-12-02T23:04:35.843Z,17
2022-12-02T23:06:35.927Z,17
2022-12-02T23:08:36.022Z,15
2022-12-02T23:10:36.133Z,15
2022-12-02T23:12:36.213Z,14
2022-12-02T23:14:36.302Z,15
2022-12-02T23:16:36.497Z,15
2022-12-02T23:18:36.459Z,12
2022-12-02T23:20:36.579Z,12
2022-12-02T23:22:36.644Z,13
2022-12-02T23:24:36.748Z,13
2022-12-02T23:26:36.857Z,14
2022-12-02T23:28:36.928Z,17
2022-12-02T23:30:37.092Z,17
2022-12-02T23:32:37.102Z,14
2022-12-02T23:34:37.201Z,14
2022-12-02T23:36:37.327Z,13
2022-12-02T23:38:37.366Z,12
2022-12-02T23:40:37.469Z,13
2022-12-02T23:42:38.452Z,12
2022-12-02T23:44:37.619Z,13
2022-12-02T23:46:37.778Z,13
2022-12-02T23:48:37.800Z,14
2022-12-02T23:50:37.897Z,13
2022-12-02T23:52:38.000Z,15
2022-12-02T23:54:38.073Z,16
2022-12-02T23:56:38.171Z,15
2022-12-02T23:58:38.259Z,14
